Latest Weather Observations for Woomera

IDS60801

Issued at 9:32 am CDT Friday 19 December 2014 (issued every 30 minutes, with the page automatically refreshed every 10 minutes)

About weather observations | Map of weather stations | Latest weather observations for SA | Other Formats
Station Details ID: 016001 Name: WOOMERA AERODROME Lat: -31.16 Lon: 136.81 Height: 166.6 m
Data from the previous 72 hours. | See also: Recent months at Woomera
Date/Time
CDT
Temp
°C
App
Temp
°C
Dew
Point
Rel
Hum
%
Delta-T
°C
Wind Press
QNH
hPa
Press
MSL
hPa
Rain
since 9 am
mm
Dir
 
Spd
km/h
Gust
km/h
Spd
kts
Gust
kts
19/09:30am 19.0 13.7 6.9 45 6.1 SSE 24 35 13 19 1019.4 - 0.0
19/09:00am 18.3 12.4 7.3 48 5.6 SE 28 37 15 20 1019.4 1018.6 0.0
19/08:30am 17.6 11.0 7.6 52 5.1 SE 32 43 17 23 1019.2 - 0.0
19/08:00am 16.9 10.2 8.3 57 4.4 SE 33 43 18 23 1018.8 - 0.0
19/07:30am 16.2 10.4 7.9 58 4.2 SSE 28 35 15 19 1018.3 - 0.0
19/07:00am 15.6 11.2 7.6 59 4.0 SSE 20 28 11 15 1018.1 - 0.0
19/06:30am 15.1 10.9 7.5 60 3.8 SSE 19 28 10 15 1017.8 - 0.0
19/06:00am 15.3 10.5 7.5 59 3.9 SSE 22 32 12 17 1017.3 1016.5 0.0
19/05:30am 15.5 11.3 7.5 59 4.0 SSE 19 24 10 13 1017.2 - 0.0
19/05:00am 15.7 11.1 8.0 60 3.9 SSE 22 28 12 15 1016.9 - 0.0
19/04:30am 15.9 11.3 8.2 60 3.9 SSE 22 28 12 15 1016.8 - 0.0
19/04:00am 16.2 10.9 8.4 60 4.0 SSE 26 33 14 18 1016.7 - 0.0
19/03:30am 16.5 10.7 7.8 56 4.4 SSE 28 41 15 22 1016.6 - 0.0
19/03:00am 16.9 11.1 8.1 56 4.5 SSE 28 37 15 20 1016.6 1015.8 0.0
19/02:30am 17.3 11.2 8.1 54 4.7 SSE 30 39 16 21 1016.6 - 0.0
19/02:00am 17.5 11.9 8.6 56 4.6 SSE 28 41 15 22 1016.5 - 0.0
19/01:30am 18.0 12.2 9.3 56 4.6 SSE 30 39 16 21 1016.6 - 0.0
19/01:00am 18.4 12.2 9.5 56 4.7 SSE 32 43 17 23 1016.7 - 0.0
19/12:30am 18.9 12.5 9.5 54 5.0 SSE 33 44 18 24 1016.5 - 0.0
19/12:00am 20.2 14.2 10.0 52 5.5 SSE 32 43 17 23 1016.3 1015.5 0.0
 
Date/Time
CDT
Temp
°C
App
Temp
°C
Dew
Point
Rel
Hum
%
Delta-T
°C
Wind Press
QNH
hPa
Press
MSL
hPa
Rain
since 9 am
mm
Dir
 
Spd
km/h
Gust
km/h
Spd
kts
Gust
kts
18/11:30pm 21.1 15.4 9.9 48 6.1 SSE 30 39 16 21 1015.8 - 0.0
18/11:00pm 21.7 15.1 10.0 47 6.4 SSE 35 46 19 25 1015.6 - 0.0
18/10:30pm 22.8 16.1 9.6 43 7.2 SE 35 43 19 23 1015.2 - 0.0
18/10:00pm 23.9 17.0 9.0 38 8.1 SE 35 46 19 25 1014.7 - 0.0
18/09:30pm 26.9 20.6 1.4 19 12.3 SSW 24 33 13 18 1014.1 - 0.0
18/09:00pm 27.5 21.7 2.3 19 12.4 SSW 22 30 12 16 1013.8 1013.0 0.0
18/08:30pm 28.1 21.5 2.1 18 12.8 SSW 26 33 14 18 1013.6 - 0.0
18/08:00pm 28.9 22.3 2.0 17 13.3 SSW 26 35 14 19 1013.3 - 0.0
18/07:30pm 29.7 23.5 1.9 17 13.8 SW 24 33 13 18 1012.9 - 0.0
18/07:00pm 30.0 22.9 1.4 16 14.1 SW 28 35 15 19 1012.6 - 0.0
18/06:44pm 30.0 22.9 1.4 16 14.1 SW 28 46 15 25 1012.3 - 0.0
18/06:30pm 30.1 23.4 1.7 16 14.1 SSW 26 35 14 19 1012.2 - 0.0
18/06:00pm 30.4 23.3 1.6 16 14.3 SW 28 35 15 19 1012.2 1011.3 0.0
18/05:30pm 31.4 25.1 1.5 15 14.9 SSW 24 37 13 20 1012.0 - 0.0
18/05:00pm 30.4 23.3 1.2 15 14.4 SW 28 43 15 23 1012.1 - 0.0
18/04:30pm 30.5 23.9 1.8 16 14.3 SW 26 41 14 22 1012.2 - 0.0
18/04:00pm 31.2 23.5 0.2 13 15.1 SSW 30 43 16 23 1012.1 - 0.0
18/03:30pm 30.9 24.0 0.3 14 14.9 SSW 26 39 14 21 1012.1 - 0.0
18/03:00pm 30.7 22.9 -0.6 13 15.0 SW 30 41 16 22 1012.2 1011.3 0.0
18/02:30pm 29.8 23.2 -0.3 14 14.4 SW 24 39 13 21 1012.2 - 0.0
18/02:00pm 29.5 23.4 0.2 15 14.1 S 22 32 12 17 1012.4 - 0.0
18/01:30pm 29.0 22.6 0.7 16 13.7 S 24 37 13 20 1012.6 - 0.0
18/01:00pm 27.8 20.6 0.7 17 13.0 S 28 39 15 21 1012.7 - 0.0
18/12:30pm 27.5 19.7 2.0 19 12.5 S 32 44 17 24 1012.6 - 0.0
18/12:00pm 27.3 19.5 1.6 19 12.5 S 32 43 17 23 1012.6 1011.8 0.0
18/11:30am 25.8 18.4 2.1 21 11.5 S 30 37 16 20 1012.5 - 0.0
18/11:00am 25.2 18.7 4.7 26 10.4 S 28 35 15 19 1012.6 - 0.0
18/10:30am 24.6 19.1 5.7 29 9.7 S 24 32 13 17 1012.5 - 0.0
18/10:00am 23.2 18.3 7.1 35 8.4 SSW 22 32 12 17 1012.7 - 0.0
18/09:30am 22.8 18.6 8.1 39 7.8 S 20 26 11 14 1012.6 - 0.0
18/09:00am 21.0 16.7 8.0 43 6.8 S 20 28 11 15 1012.5 1011.7 0.0
18/08:30am 20.4 15.2 7.4 43 6.7 SSW 24 30 13 16 1012.2 - 0.0
18/08:00am 19.6 14.4 7.3 45 6.3 S 24 28 13 15 1011.5 - 0.0
18/07:30am 18.9 14.5 8.8 52 5.3 S 22 26 12 14 1011.0 - 0.0
18/07:00am 17.9 14.9 7.8 51 5.2 SSE 13 15 7 8 1010.4 - 0.0
18/06:30am 17.1 13.6 7.2 52 5.0 SSE 15 17 8 9 1010.1 - 0.0
18/06:00am 17.3 13.7 6.7 49 5.3 S 15 20 8 11 1009.6 1008.8 0.0
18/05:30am 18.0 14.3 6.4 46 5.8 SSE 15 17 8 9 1009.5 - 0.0
18/05:00am 18.5 14.8 6.3 45 6.1 SSE 15 20 8 11 1009.4 - 0.0
18/04:30am 18.8 14.6 5.9 43 6.4 S 17 24 9 13 1009.3 - 0.0
18/04:00am 18.9 14.5 5.0 40 6.8 S 17 20 9 11 1009.0 - 0.0
18/03:30am 18.7 15.4 4.7 39 6.8 S 11 13 6 7 1008.7 - 0.0
18/03:00am 20.4 17.5 4.8 36 7.7 SE 9 11 5 6 1008.5 1007.7 0.0
18/02:30am 21.3 17.6 4.7 33 8.2 SSE 13 17 7 9 1008.1 - 0.0
18/02:00am 21.8 16.8 4.4 32 8.6 S 20 28 11 15 1007.9 - 0.0
18/01:30am 22.1 17.0 4.3 31 8.8 S 20 26 11 14 1008.0 - 0.0
18/01:00am 22.7 16.5 4.1 29 9.2 S 26 35 14 19 1008.3 - 0.0
18/12:30am 23.2 16.5 3.4 27 9.7 S 28 37 15 20 1008.1 - 0.0
18/12:00am 23.9 17.3 2.0 24 10.5 S 26 33 14 18 1008.2 1007.4 0.0
 
Date/Time
CDT
Temp
°C
App
Temp
°C
Dew
Point
Rel
Hum
%
Delta-T
°C
Wind Press
QNH
hPa
Press
MSL
hPa
Rain
since 9 am
mm
Dir
 
Spd
km/h
Gust
km/h
Spd
kts
Gust
kts
17/11:53pm 23.9 16.7 0.5 21 10.9 S 28 33 15 18 1008.2 - 0.0
17/11:30pm 23.4 19.4 -2.3 18 11.3 SSW 9 11 5 6 1008.1 - 0.0
17/11:00pm 24.9 21.8 -0.1 19 11.6 SSW 6 7 3 4 1008.0 - 0.0
17/10:30pm 25.5 22.1 -0.4 18 12.0 SSW 7 7 4 4 1007.5 - 0.0
17/10:00pm 25.8 21.8 -2.3 15 12.6 S 9 11 5 6 1007.4 - 0.0
17/09:30pm 26.6 22.0 -4.5 12 13.5 WSW 11 15 6 8 1007.5 - 0.0
17/09:00pm 27.2 21.4 -4.9 12 13.9 WSW 17 22 9 12 1007.6 1006.8 0.0
17/08:30pm 27.6 20.0 -5.9 10 14.2 WSW 26 35 14 19 1007.6 - 0.0
17/08:00pm 28.1 19.0 -10.1 7 15.1 WSW 32 37 17 20 1007.2 - 0.0
17/07:30pm 28.7 19.2 -12.4 6 15.7 W 33 41 18 22 1006.6 - 0.0
17/07:00pm 29.9 21.0 -11.8 6 16.3 W 30 44 16 24 1006.0 - 0.0
17/06:30pm 30.8 22.7 -18.6 3 17.4 WSW 24 28 13 15 1005.5 - 0.0
17/06:00pm 31.1 26.7 -6.0 8 16.3 W 9 19 5 10 1005.3 1004.4 0.0
17/05:30pm 29.6 26.3 -1.5 13 14.5 SSE 6 9 3 5 1005.6 - 0.0
17/05:00pm 30.1 23.7 -4.7 10 15.4 W 20 26 11 14 1005.9 - 0.0
17/04:30pm 28.7 24.3 -2.6 13 14.3 SSW 11 20 6 11 1006.3 - 0.0
17/04:00pm 28.0 23.7 -1.6 14 13.6 S 11 15 6 8 1006.6 - 0.0
17/03:30pm 27.8 23.9 -1.7 14 13.6 SSE 9 20 5 11 1007.2 - 0.0
17/03:00pm 26.6 21.7 -0.7 16 12.7 SW 15 22 8 12 1007.8 1007.0 0.0
17/02:30pm 26.1 21.1 -1.1 16 12.5 S 15 22 8 12 1008.3 - 0.0
17/02:00pm 25.9 20.2 -0.7 17 12.3 SSW 19 28 10 15 1008.7 - 0.0
17/01:30pm 24.9 19.1 -0.1 19 11.6 WSW 20 28 11 15 1009.1 - 0.0
17/01:00pm 24.0 19.3 1.0 22 10.8 SSW 15 24 8 13 1009.7 - 0.0
17/12:30pm 24.4 18.7 0.7 21 11.1 SSW 20 28 11 15 1010.0 - 0.0
17/12:00pm 23.4 18.8 3.7 27 9.7 S 17 26 9 14 1010.4 1009.6 0.0
17/11:30am 21.9 18.2 4.2 31 8.7 SW 13 20 7 11 1010.7 - 0.0
17/11:00am 21.3 18.5 5.0 34 8.1 ESE 9 13 5 7 1011.5 - 0.0
17/10:30am 20.1 16.7 5.7 39 7.2 SSE 13 22 7 12 1011.5 - 0.0
17/10:00am 19.3 15.5 5.9 41 6.7 SSE 15 26 8 14 1011.7 - 0.0
17/09:30am 19.1 14.7 6.4 43 6.4 ESE 19 20 10 11 1011.8 - 0.0
17/09:00am 18.0 13.5 6.9 48 5.6 SE 20 28 11 15 1011.3 1010.5 0.0
17/08:30am 17.2 11.1 6.8 50 5.2 SE 28 35 15 19 1010.8 - 0.0
17/08:00am 16.5 10.0 6.6 52 4.9 SSE 30 37 16 20 1010.7 - 0.0
17/07:30am 15.8 9.6 6.2 53 4.7 SSE 28 33 15 18 1010.6 - 0.0
17/07:00am 15.2 10.1 6.2 55 4.4 SSE 22 32 12 17 1010.3 - 0.0
17/06:30am 14.5 9.5 6.3 58 4.0 S 22 28 12 15 1009.8 - 0.0
17/06:00am 14.5 9.9 6.3 58 4.0 S 20 26 11 14 1009.7 1008.9 0.0
17/05:30am 14.6 9.9 6.2 57 4.1 S 20 26 11 14 1009.3 - 0.0
17/05:00am 14.9 10.2 6.0 55 4.3 S 20 28 11 15 1009.3 - 0.0
17/04:30am 15.2 9.4 6.4 55 4.3 S 26 35 14 19 1009.1 - 0.0
17/04:00am 15.5 10.2 6.6 55 4.4 SSE 24 35 13 19 1009.0 - 0.0
17/03:30am 15.7 10.8 6.8 55 4.4 SSE 22 30 12 16 1009.1 - 0.0
17/03:00am 16.1 10.4 6.9 54 4.6 SE 26 32 14 17 1009.4 1008.6 0.0
17/02:30am 16.5 10.8 6.9 53 4.8 SE 26 33 14 18 1009.7 - 0.0
17/02:00am 16.9 11.2 6.9 51 5.0 SSE 26 35 14 19 1009.7 - 0.0
17/01:30am 17.3 12.2 7.5 52 5.0 SSE 24 33 13 18 1009.6 - 0.0
17/01:00am 17.7 12.3 8.2 53 4.9 SSE 26 32 14 17 1009.6 - 0.0
17/12:30am 18.2 12.9 8.6 53 5.0 SSE 26 35 14 19 1009.5 - 0.0
17/12:00am 19.0 13.4 8.7 51 5.4 SSE 28 35 15 19 1009.4 1008.6 0.0
 
Date/Time
CDT
Temp
°C
App
Temp
°C
Dew
Point
Rel
Hum
%
Delta-T
°C
Wind Press
QNH
hPa
Press
MSL
hPa
Rain
since 9 am
mm
Dir
 
Spd
km/h
Gust
km/h
Spd
kts
Gust
kts
16/11:30pm 19.9 14.3 8.8 48 5.9 SSE 28 37 15 20 1009.1 - 0.0
16/11:00pm 21.2 15.4 8.1 43 6.9 SSE 28 37 15 20 1008.9 - 0.0
16/10:30pm 23.0 14.6 1.6 24 10.1 S 35 44 19 24 1008.3 - 0.0
16/10:00pm 23.7 15.1 2.6 25 10.2 SSW 37 46 20 25 1008.0 - 0.0
16/09:30pm 24.6 15.5 1.9 22 10.9 SSW 39 50 21 27 1007.3 - 0.0
16/09:00pm 25.5 16.8 -0.8 17 12.1 SSW 35 44 19 24 1007.2 1006.4 0.0
16/08:30pm 26.3 16.5 -0.2 17 12.4 SSW 41 50 22 27 1006.5 - 0.0
16/08:00pm 27.6 18.5 -0.4 16 13.1 SSW 37 50 20 27 1006.1 - 0.0
16/07:30pm 29.3 20.8 3.0 18 13.3 SSW 37 46 20 25 1005.5 - 0.0
16/07:00pm 30.6 22.9 5.4 20 13.3 SSW 35 46 19 25 1005.0 - 0.0
16/06:30pm 31.6 24.1 4.4 18 14.2 SSW 33 46 18 25 1004.6 - 0.0
16/06:13pm 31.5 24.2 4.5 18 14.2 S 32 39 17 21 1004.4 - 0.0
16/06:00pm 31.6 23.3 4.4 18 14.3 SSW 37 50 20 27 1004.3 1003.5 0.0
16/05:30pm 32.5 24.6 4.6 17 14.7 SSW 35 46 19 25 1004.1 - 0.0
16/05:25pm 32.5 24.6 4.6 17 14.7 SSW 35 43 19 23 1004.1 - 0.0
16/05:15pm 32.8 24.2 4.5 17 14.9 SW 39 46 21 25 1004.0 - 0.0
16/05:05pm 33.2 26.2 4.0 16 15.3 S 30 43 16 23 1003.8 - 0.0
16/05:00pm 33.1 24.4 4.1 16 15.2 SW 39 54 21 29 1003.8 - 0.0
16/04:30pm 33.3 25.8 6.5 19 14.7 SW 35 54 19 29 1003.9 - 0.0
16/04:00pm 34.1 26.1 5.9 17 15.3 SW 37 57 20 31 1003.6 - 0.0
16/03:54pm 34.0 26.8 5.7 17 15.3 SW 33 54 18 29 1003.7 - 0.0
16/03:30pm 35.0 27.5 4.7 15 16.2 SW 33 50 18 27 1003.7 - 0.0
16/03:08pm 34.6 28.1 6.3 17 15.5 SW 30 50 16 27 1003.6 - 0.0
16/03:00pm 35.0 28.1 6.4 17 15.8 W 32 44 17 24 1003.6 1002.8 0.0
16/02:40pm 35.1 29.2 7.6 18 15.4 W 28 46 15 25 1003.7 - 0.0
16/02:30pm 35.4 28.3 8.2 19 15.4 WSW 35 44 19 24 1003.7 - 0.0
16/02:00pm 35.4 28.2 9.1 20 15.1 W 37 50 20 27 1003.7 - 0.0
16/01:54pm 35.4 28.0 8.2 19 15.4 W 37 59 20 32 1003.7 - 0.0
16/01:34pm 34.8 28.1 7.3 18 15.3 WSW 32 50 17 27 1003.8 - 0.0
16/01:30pm 35.2 28.9 7.5 18 15.5 WSW 30 44 16 24 1003.8 - 0.0
16/01:00pm 35.4 29.8 5.6 15 16.2 W 24 44 13 24 1004.1 - 0.0
16/12:41pm 35.2 28.9 5.8 16 16.1 W 28 46 15 25 1004.3 - 0.0
16/12:30pm 35.0 27.7 4.4 15 16.3 W 32 46 17 25 1004.6 - 0.0
16/12:08pm 35.0 28.0 4.0 14 16.4 WSW 30 48 16 26 1004.4 - 0.0
16/12:00pm 34.5 28.3 4.3 15 16.1 WSW 26 35 14 19 1004.6 1003.8 0.0
16/11:32am 33.6 26.0 3.0 14 15.8 W 32 50 17 27 1004.8 - 0.0
16/11:30am 33.5 25.6 2.4 14 15.9 W 33 50 18 27 1004.8 - 0.0
16/11:27am 33.7 26.0 2.5 14 16.0 WSW 32 50 17 27 1004.8 - 0.0
16/11:00am 34.2 27.0 2.9 14 16.2 W 30 43 16 23 1004.5 - 0.0
16/10:30am 32.1 25.6 2.6 15 15.0 WNW 26 35 14 19 1004.7 - 0.0
16/10:00am 31.2 26.5 3.2 17 14.3 NNW 17 24 9 13 1004.7 - 0.0

Other Formats:

Comma delimited format used in spreadsheet applications
http://www.bom.gov.au/fwo/IDS60801/IDS60801.94659.axf

JavaScript Object Notation format (JSON) in row-major order
http://www.bom.gov.au/fwo/IDS60801/IDS60801.94659.json